Flight Track Log - Related Links

Times and Time Zones

All times are in EDT time to prevent confusion due to time zone crossing. See the N789EX flight status page for this flight to view local times or setup timezone preferences in your user account.

Time Position Orientation Groundspeed Altitude Reporting Facility
EDT Latitude Longitude Course Direction KTS MPH feet Rate Location/Type
Thu 12:46:41 PM 47.5559 -122.3250 325° Northwest 188 216 1,200  Level FlightAware ADS-B
Thu 12:46:51 PM 47.5627 -122.3330 323° Northwest 201 231 1,500 1,714 Climbing FlightAware ADS-B
Thu 12:47:02 PM 47.5713 -122.3430 322° Northwest 215 247 1,800 1,636 Climbing FlightAware ADS-B
Thu 12:47:13 PM 47.5802 -122.3530 324° Northwest 228 262 2,100 2,077 Climbing FlightAware ADS-B
Thu 12:47:28 PM 47.5937 -122.3670 325° Northwest 243 280 2,700 2,500 Climbing FlightAware ADS-B
Thu 12:47:37 PM 47.6019 -122.3760 326° Northwest 247 284 3,100 2,857 Climbing FlightAware ADS-B
Thu 12:47:49 PM 47.6134 -122.3870 324° Northwest 251 289 3,700 3,200 Climbing FlightAware ADS-B
Thu 12:47:52 PM 47.6165 -122.3910 320° Northwest 251 289 3,900 3,429 Climbing FlightAware ADS-B
Thu 12:47:56 PM 47.6197 -122.3950 313° West 253 291 4,100 3,000 Climbing FlightAware ADS-B
Thu 12:48:00 PM 47.6225 -122.4010 304° West 253 291 4,300 2,571 Climbing FlightAware ADS-B
Thu 12:48:03 PM 47.6243 -122.4060 298° West 254 292 4,400 3,000 Climbing FlightAware ADS-B
Thu 12:48:06 PM 47.6261 -122.4110 292° West 256 295 4,600 3,000 Climbing FlightAware ADS-B
Thu 12:48:09 PM 47.6279 -122.4150 285° West 257 296 4,700 3,000 Climbing FlightAware ADS-B
Thu 12:48:14 PM 47.6273 -122.4250 275° West 259 298 5,000 3,500 Climbing FlightAware ADS-B
Thu 12:48:21 PM 47.6282 -122.4360 269° West 260 299 5,400 3,500 Climbing FlightAware ADS-B
Thu 12:48:26 PM 47.6270 -122.4470 269° West 260 299 5,700 3,273 Climbing FlightAware ADS-B
Thu 12:48:32 PM 47.6268 -122.4560 273° West 259 298 6,000 3,000 Climbing FlightAware ADS-B
Thu 12:48:36 PM 47.6277 -122.4640 277° West 260 299 6,200 3,000 Climbing FlightAware ADS-B
Thu 12:48:40 PM 47.6281 -122.4700 280° West 260 299 6,400 3,000 Climbing FlightAware ADS-B
Thu 12:48:44 PM 47.6296 -122.4770 284° West 260 299 6,600 3,273 Climbing FlightAware ADS-B
Thu 12:48:51 PM 47.6317 -122.4890 289° West 261 300 7,000 3,000 Climbing FlightAware ADS-B
Thu 12:49:04 PM 47.6377 -122.5110 291° West 262 302 7,600 3,231 Climbing FlightAware ADS-B
Thu 12:49:17 PM 47.6437 -122.5340 291° West 264 304 8,400 3,300 Climbing FlightAware ADS-B
Thu 12:49:24 PM 47.6465 -122.5444 291° West 265 305 8,700 2,870 Climbing FlightAware ADS-B (CYVR)
Thu 12:49:40 PM 47.6538 -122.5730 291° West 266 306 9,500 3,143 Climbing FlightAware ADS-B
Thu 12:49:45 PM 47.6556 -122.5797 291° West 267 307 9,800 2,000 Climbing FlightAware ADS-B (CYVR)
Thu 12:50:10 PM 47.6672 -122.6250 291° West 290 334 10,500 1,333 Climbing FlightAware ADS-B
Thu 12:50:30 PM 47.6757 -122.6580 291° West 321 369 10,800 1,161 Climbing FlightAware ADS-B (CYVR)
Thu 12:50:41 PM 47.6827 -122.6860 291° West 326 375 11,100 2,057 Climbing FlightAware ADS-B
Thu 12:51:05 PM 47.6961 -122.7381 290° West 338 389 12,000 2,200 Climbing FlightAware ADS-B
Thu 12:51:11 PM 47.6991 -122.7500 291° West 340 391 12,200 2,600 Climbing FlightAware ADS-B
Thu 12:51:35 PM 47.7080 -122.7855 291° West 346 398 13,300 2,600 Climbing FlightAware ADS-B (CYVR)
Thu 12:51:41 PM 47.7159 -122.8170 290° West 347 399 13,500 2,710 Climbing FlightAware ADS-B
Thu 12:52:06 PM 47.7301 -122.8736 290° West 351 404 14,700 2,710 Climbing FlightAware ADS-B
Thu 12:52:12 PM 47.7330 -122.8850 290° West 352 405 14,900 2,600 Climbing FlightAware ADS-B
Thu 12:52:36 PM 47.7459 -122.9365 290° West 353 406 16,000 2,600 Climbing FlightAware ADS-B
Thu 12:52:42 PM 47.7505 -122.9550 291° West 353 406 16,200 2,500 Climbing FlightAware ADS-B
Thu 12:53:12 PM 47.7678 -123.0230 290° West 355 409 17,500 2,700 Climbing FlightAware ADS-B
Thu 12:53:42 PM 47.7849 -123.0920 290° West 351 404 18,900 2,909 Climbing FlightAware ADS-B
Thu 12:53:45 PM 47.7864 -123.0977 291° West 351 404 19,100 2,129 Climbing FlightAware ADS-B (CYVR)
Thu 12:54:13 PM 47.8021 -123.1610 290° West 356 410 20,000 2,000 Climbing FlightAware ADS-B
Thu 12:54:15 PM 47.8036 -123.1669 290° West 357 411 20,100 2,400 Climbing FlightAware ADS-B (CYVR)
Thu 12:54:43 PM 47.8194 -123.2300 290° West 358 412 21,200 2,400 Climbing FlightAware ADS-B
Thu 12:54:45 PM 47.8208 -123.2360 290° West 358 412 21,300 2,000 Climbing FlightAware ADS-B
Thu 12:55:13 PM 47.8365 -123.3000 290° West 360 414 22,200 2,000 Climbing FlightAware ADS-B
Thu 12:55:15 PM 47.8371 -123.3022 290° West 361 415 22,300 2,000 Climbing FlightAware ADS-B (CYVR)
Thu 12:55:43 PM 47.8542 -123.3710 290° West 365 420 23,200 1,800 Climbing FlightAware ADS-B
Thu 12:55:45 PM 47.8550 -123.3743 290° West 365 420 23,200 1,615 Level FlightAware ADS-B (CYVR)
Thu 12:56:09 PM 47.8694 -123.4330 290° West 369 425 23,900 1,400 Climbing FlightAware ADS-B
Thu 12:56:15 PM 47.8727 -123.4459 291° West 369 425 23,900 333 Level FlightAware ADS-B (CYVR)
Thu 12:56:27 PM 47.8803 -123.4730 294° West 368 423 24,000 261 Climbing FlightAware ADS-B
Thu 12:56:38 PM 47.8888 -123.4990 297° West 369 425 24,000  Level FlightAware ADS-B
Thu 12:56:46 PM 47.8951 -123.5168 299° West 368 423 24,000  Level FlightAware ADS-B
Thu 12:57:08 PM 47.9138 -123.5660 299° West 370 426 24,000  Level FlightAware ADS-B
Thu 12:57:25 PM 47.9273 -123.6030 299° West 371 427 24,000  Level FlightAware ADS-B (CYVR)
Thu 12:57:39 PM 47.9389 -123.6340 299° West 371 427 24,000  Level FlightAware ADS-B
Thu 12:57:56 PM 47.9533 -123.6732 299° West 372 428 24,000  Level FlightAware ADS-B
Thu 12:58:09 PM 47.9637 -123.7020 299° West 372 428 24,000  Level FlightAware ADS-B
Thu 12:58:34 PM 47.9845 -123.7577 299° West 372 428 24,000  Level FlightAware ADS-B (CYVR)
Thu 12:58:39 PM 47.9889 -123.7700 299° West 372 428 24,000  Level FlightAware ADS-B
Thu 12:59:04 PM 48.0073 -123.8196 299° West 373 429 24,000  Level FlightAware ADS-B (CYVR)
Thu 12:59:09 PM 48.0141 -123.8380 299° West 373 429 24,000  Level FlightAware ADS-B
Thu 12:59:35 PM 48.0355 -123.8965 299° West 374 430 24,000  Level FlightAware ADS-B
Thu 12:59:41 PM 48.0403 -123.9100 299° West 374 430 24,000  Level FlightAware ADS-B
Thu 01:00:06 PM 48.0569 -123.9549 299° West 376 433 24,000  Level FlightAware ADS-B
Thu 01:00:11 PM 48.0654 -123.9780 299° West 376 433 24,000  Level FlightAware ADS-B
Thu 01:00:42 PM 48.0908 -124.0480 299° West 376 433 24,000  Level FlightAware ADS-B
Thu 01:00:45 PM 48.0933 -124.0545 299° West 376 433 24,000  Level FlightAware ADS-B
Thu 01:01:16 PM 48.1192 -124.1253 299° West 377 434 24,000  Level FlightAware ADS-B
Thu 01:01:42 PM 48.1411 -124.1860 299° West 376 433 24,000  Level FlightAware ADS-B
Thu 01:01:46 PM 48.1442 -124.1944 299° West 378 435 24,000  Level FlightAware ADS-B
Thu 01:02:26 PM 48.1756 -124.2811 299° West 378 435 24,000  Level FlightAware ADS-B
Thu 01:02:56 PM 48.1989 -124.3454 298° West 377 434 24,000  Level FlightAware ADS-B (CYVR)
Thu 01:03:26 PM 48.2239 -124.4149 298° West 379 436 24,000  Level FlightAware ADS-B
Thu 01:04:05 PM 48.2588 -124.5120 298° West 379 436 24,000  Level FlightAware ADS-B (CYVR)
Thu 01:04:36 PM 48.2849 -124.5850 299° West 378 435 24,000  Level FlightAware ADS-B
Thu 01:04:56 PM 48.3056 -124.6280 312° West 381 438 24,000  Level FlightAware ADS-B
Thu 01:05:15 PM 48.3306 -124.6606 324° Northwest 384 442 24,000  Level FlightAware ADS-B (CYVR)
Thu 01:05:45 PM 48.3742 -124.7073 324° Northwest 384 442 24,000  Level FlightAware ADS-B
Thu 01:05:56 PM 48.3908 -124.7250 324° Northwest 384 442 24,000  Level FlightAware ADS-B
Thu 01:06:16 PM 48.4187 -124.7557 324° Northwest 384 442 24,000  Level FlightAware ADS-B
Thu 01:06:56 PM 48.4764 -124.8185 324° Northwest 387 445 24,000  Level FlightAware ADS-B (CYVR)
Thu 01:07:35 PM 48.5330 -124.8803 324° Northwest 387 445 24,000  Level FlightAware ADS-B (CYVR)
Thu 01:08:15 PM 48.5907 -124.9435 324° Northwest 386 444 24,000  Level FlightAware ADS-B (CYVR)
Thu 01:08:45 PM 48.6095 -124.9641 324° Northwest 386 444 24,000  Level FlightAware ADS-B (CYVR)
Thu 01:09:25 PM 48.6833 -125.0451 324° Northwest 386 444 24,000  Level FlightAware ADS-B (CYVR)
Thu 01:10:26 PM 48.7790 -125.1508 324° Northwest 385 443 24,000  Level FlightAware ADS-B (CYVR)
Thu 01:11:00 PM 48.8278 -125.2048 324° Northwest 386 444 24,000  Level FlightAware ADS-B (CYVR)
Thu 01:11:55 PM 48.9058 -125.2916 324° Northwest 385 443 24,000  Level FlightAware ADS-B (CYVR)
Thu 01:12:34 PM 48.9527 -125.3439 324° Northwest 383 441 24,000  Level FlightAware ADS-B (CYVR)
Thu 01:13:33 PM 49.0437 -125.4457 324° Northwest 383 441 24,000  Level FlightAware ADS-B (CYVR)
Thu 01:14:05 PM 49.0924 -125.5002 324° Northwest 382 440 24,000  Level FlightAware ADS-B (CYVR)
Thu 01:14:35 PM 49.1302 -125.5426 324° Northwest 382 440 24,000  Level FlightAware ADS-B (CYVR)
Thu 01:15:05 PM 49.1774 -125.5959 324° Northwest 380 437 24,000  Level FlightAware ADS-B (CYVR)
Thu 01:15:36 PM 49.2141 -125.6375 324° Northwest 380 437 24,000  Level FlightAware ADS-B (CYVR)
Thu 01:16:15 PM 49.2681 -125.6986 323° Northwest 381 438 24,000  Level FlightAware ADS-B (CYVR)
Thu 01:16:46 PM 49.3127 -125.7492 324° Northwest 380 437 24,000  Level FlightAware ADS-B (CYVR)
Thu 01:17:25 PM 49.3677 -125.8117 323° Northwest 377 434 24,000  Level FlightAware ADS-B (CYVR)
Thu 01:17:55 PM 49.4144 -125.8649 323° Northwest 377 434 24,000  Level FlightAware ADS-B (CYVR)
Thu 01:18:33 PM 49.4675 -125.9257 323° Northwest 376 433 24,000  Level FlightAware ADS-B (CYVR)
Thu 01:19:50 PM 49.5500 -126.0667 323° Northwest 380 437 24,000  Level Vancouver Center
Thu 01:20:34 PM 49.6374 -126.1212 323° Northwest 376 433 24,000  Level FlightAware ADS-B (CYVR)
Thu 01:20:50 PM 49.6500 -126.1500 332° Northwest 380 437 24,000  Level Vancouver Center
Thu 01:23:50 PM 49.9000 -126.4500 142° Southeast 370 426 24,000  Level Vancouver Center
Thu 01:24:50 PM 49.9500 -126.5167 319° Northwest 370 426 24,000  Level Vancouver Center
Thu 01:25:00 PM 49.9274 -126.4538 323° Northwest  Level FlightAware Approximate
Thu 01:26:50 PM 50.1333 -126.7167 325° Northwest 370 426 24,000  Level Vancouver Center
Thu 01:27:50 PM 50.2167 -126.8333 318° Northwest 370 426 24,000 -300 Level Vancouver Center
Thu 01:28:50 PM 50.2833 -126.9167 321° Northwest 350 403 23,400 -800 Descending Vancouver Center
Thu 01:29:50 PM 50.3667 -127.0000 327° Northwest 320 368 22,400 -1,000 Descending Vancouver Center
Thu 01:30:50 PM 50.4167 -127.0667 320° Northwest 290 334 21,400 -2,000 Descending Vancouver Center
Thu 01:31:50 PM 50.5000 -127.1667 323° Northwest 290 334 18,400 -1,850 Descending Vancouver Center
Thu 01:34:50 PM 50.6833 -127.4333 314° West 320 368 14,000 -1,150 Descending Vancouver Center
Thu 01:35:50 PM 50.7500 -127.5167 322° Northwest 320 368 13,800 -400 Descending Vancouver Center
Thu 01:36:50 PM 50.8167 -127.6333 312° West 310 357 13,200 -550 Descending Vancouver Center
Thu 01:37:50 PM 50.8833 -127.7167 322° Northwest 300 345 12,700 -500 Descending Vancouver Center
Thu 01:38:50 PM 50.9167 -127.8000 302° West 270 311 12,200 -350 Descending Vancouver Center
Thu 01:39:50 PM 50.9667 -127.8833 314° West 260 299 12,000 -100 Descending Vancouver Center
Thu 01:40:00 PM 51.0271 -127.9106 314° West  Level FlightAware Approximate
Thu 01:40:50 PM 51.0167 -127.9667 314° West 260 299 12,000  Level Vancouver Center
Thu 01:41:50 PM 51.0833 -128.0333 317° Northwest 260 299 12,000  Level Vancouver Center
Thu 01:42:50 PM 51.1333 -128.1167 314° West 260 299 12,000  Level Vancouver Center
Thu 01:43:00 PM 51.1555 -128.1703 317° Northwest  Level FlightAware Approximate
Thu 01:43:50 PM 51.1833 -128.2000 314° West 260 299 12,000  Level Vancouver Center
Thu 01:44:50 PM 51.2167 -128.2833 303° West 260 299 12,000  Level Vancouver Center
Thu 01:45:50 PM 51.2667 -128.3667 314° West 260 299 12,000  Level Vancouver Center
Thu 01:46:50 PM 51.3333 -128.4500 322° Northwest 240 276 12,000 -50 Level Vancouver Center
Thu 01:47:50 PM 51.3667 -128.5000 317° Northwest 240 276 11,900 80 Descending Vancouver Center
Thu 01:51:50 PM 51.5500 -128.8167 313° West 250 288 12,400 100 Climbing Vancouver Center
Thu 01:52:50 PM 51.6000 -128.9000 314° West 250 288 12,400  Level Vancouver Center
Thu 01:53:50 PM 51.6667 -129.0000 317° Northwest 250 288 12,400  Level Vancouver Center
Thu 01:54:00 PM 51.7479 -129.1086 314° West  Level FlightAware Approximate
Thu 01:54:50 PM 51.7167 -129.0833 314° West 250 288 12,400  Level Vancouver Center
Thu 01:56:50 PM 51.8167 -129.2000 324° Northwest 260 299 12,400  Level Vancouver Center
Thu 01:57:50 PM 51.8833 -129.2333 343° North 250 288 12,400  Level Vancouver Center
Thu 01:58:50 PM 51.9500 -129.3000 328° Northwest 250 288 12,400  Level Vancouver Center
Thu 01:59:50 PM 52.0167 -129.3667 328° Northwest 250 288 12,400  Level Vancouver Center
Thu 02:00:50 PM 52.0833 -129.4167 335° Northwest 250 288 12,400 150 Level Vancouver Center
Thu 02:01:00 PM 52.1620 -129.8288 313° West  Level FlightAware Approximate
Thu 02:01:50 PM 52.1333 -129.4500 338° Northwest 250 288 12,700  Level Vancouver Center
Thu 02:02:50 PM 52.1833 -129.5167 321° Northwest 250 288 12,900 67 Climbing Vancouver Center
Thu 02:04:50 PM 52.3167 -129.6500 329° Northwest 250 288 12,900 -133 Level Vancouver Center
Thu 02:05:50 PM 52.3833 -129.6833 343° North 250 288 12,500 -250 Descending Vancouver Center
Thu 02:06:50 PM 52.4500 -129.7500 329° Northwest 250 288 12,400 -33 Descending Vancouver Center
Thu 02:08:50 PM 52.5667 -129.8500 332° Northwest 250 288 12,400  Level Vancouver Center
Thu 02:09:50 PM 52.6167 -129.9000 329° Northwest 250 288 12,400 -100 Level Vancouver Center
Thu 02:10:50 PM 52.6833 -129.9500 336° Northwest 250 288 12,200  Descending Vancouver Center
Thu 02:11:50 PM 52.7500 -129.8667 37° Northeast 280 322 12,400 100 Climbing Vancouver Center
Thu 02:12:50 PM 52.7833 -129.7667 61° Northeast 290 334 12,400  Level Vancouver Center
Thu 02:13:50 PM 52.8167 -129.6333 67° East 300 345 12,400  Level Vancouver Center
Thu 02:14:50 PM 52.8833 -129.5333 42° Northeast 300 345 12,400  Level Vancouver Center
Thu 02:15:50 PM 52.9333 -129.4833 31° Northeast 270 311 12,400  Level Vancouver Center
Thu 02:16:50 PM 53.0000 -129.5500 329° Northwest 250 288 12,400 -100 Level Vancouver Center
Thu 02:17:50 PM 53.0500 -129.5833 338° Northwest 250 288 12,200 -140 Descending Vancouver Center
Thu 02:21:50 PM 53.2833 -129.8000 137° Southeast 240 276 11,700 -150 Descending Vancouver Center
Thu 02:23:50 PM 53.4167 -129.9000 137° Southeast 240 276 11,300 -167 Descending Vancouver Center
Thu 02:24:50 PM 53.4667 -129.9667 322° Northwest 240 276 11,200 -50 Descending Vancouver Center
Thu 02:25:00 PM 52.9939 -129.3582 137° Southeast  Level Estimated
Thu 02:25:50 PM 53.5167 -130.0333 322° Northwest 240 276 11,200  Level Vancouver Center
Thu 02:26:50 PM 53.5833 -130.1000 329° Northwest 240 276 11,500 267 Climbing Vancouver Center
Thu 02:28:50 PM 53.7000 -130.2000 138° Southeast 250 288 12,000 167 Climbing Vancouver Center
Thu 02:29:00 PM 52.0275 -128.0501 137° Southeast  Level Estimated
Thu 02:29:00 PM 53.3903 -129.8053 138° Southeast  Level Estimated
Thu 02:29:50 PM 53.7667 -130.2667 329° Northwest 240 276 12,000  Level Vancouver Center
Thu 02:30:50 PM 53.8167 -130.3333 322° Northwest 250 288 12,000  Level Vancouver Center
Thu 02:31:50 PM 53.8667 -130.3667 339° North 250 288 12,000 -25 Level Vancouver Center
Thu 02:34:50 PM 54.0167 -130.4000 138° Southeast 260 299 11,900 -40 Descending Vancouver Center
Thu 02:36:50 PM 53.9167 -130.2000 139° Southeast 280 322 11,800 -33 Descending Vancouver Center
Thu 02:37:50 PM 53.8500 -130.1167 144° Southeast 280 322 11,800  Level Vancouver Center
Thu 02:38:50 PM 53.8000 -130.0167 130° Southeast 280 322 11,800  Level Vancouver Center
Thu 02:40:50 PM 53.7000 -129.8333 133° Southeast 280 322 11,800  Level Vancouver Center
Thu 02:41:50 PM 53.6333 -129.7333 138° Southeast 280 322 11,800 -50 Level Vancouver Center
Thu 02:42:50 PM 53.5667 -129.6500 143° Southeast 280 322 11,700 -50 Descending Vancouver Center
Thu 02:43:50 PM 53.5333 -129.5500 119° Southeast 280 322 11,700  Level Vancouver Center
Thu 02:44:50 PM 53.4667 -129.5000 156° South 270 311 11,700  Level Vancouver Center
Thu 02:45:50 PM 53.4000 -129.4333 149° Southeast 270 311 11,700  Level Vancouver Center
Thu 02:46:50 PM 53.3333 -129.3667 149° Southeast 270 311 11,700  Level Vancouver Center
Thu 02:47:50 PM 53.2667 -129.2667 138° Southeast 270 311 11,700  Level Vancouver Center
Thu 02:48:50 PM 53.2167 -129.2000 141° Southeast 270 311 11,700 100 Level Vancouver Center
Thu 02:49:50 PM 53.1500 -129.1500 156° South 270 311 11,900 100 Climbing Vancouver Center
Thu 02:50:50 PM 53.0833 -129.0833 149° Southeast 270 311 11,900  Level Vancouver Center
Thu 02:56:50 PM 52.7167 -128.6500 148° Southeast 270 311 11,900  Level Vancouver Center
Thu 02:58:50 PM 52.5833 -128.5333 139° Southeast 270 311 11,900  Level Vancouver Center
Thu 02:59:00 PM 52.5581 -128.5426 148° Southeast  Level FlightAware Approximate
Thu 02:59:50 PM 52.5333 -128.4333 129° Southeast 270 311 11,900  Level Vancouver Center
Thu 03:02:50 PM 52.3500 -128.2500 148° Southeast 260 299 11,900  Level Vancouver Center
Thu 03:03:50 PM 52.2833 -128.2167 163° South 260 299 11,900  Level Vancouver Center
Thu 03:04:50 PM 52.2000 -128.1833 166° South 260 299 11,900  Level Vancouver Center
Thu 03:05:50 PM 52.1333 -128.1500 163° South 260 299 11,900  Level Vancouver Center
Thu 03:06:50 PM 52.0667 -128.1167 163° South 260 299 11,900  Level Vancouver Center
Thu 03:07:50 PM 52.0000 -128.0833 163° South 260 299 11,900  Level Vancouver Center
Thu 03:08:50 PM 51.9333 -128.0500 163° South 260 299 11,900  Level Vancouver Center
Thu 03:09:50 PM 51.8500 -127.9833 154° Southeast 260 299 11,900  Level Vancouver Center
Thu 03:10:50 PM 51.7833 -127.9500 163° South 260 299 11,900  Level Vancouver Center
Thu 03:11:50 PM 51.7167 -127.9833 197° South 240 276 11,900  Level Vancouver Center
Thu 03:12:50 PM 51.6500 -128.0000 189° South 250 288 11,900  Level Vancouver Center
Thu 03:13:50 PM 51.5833 -127.9833 171° South 250 288 11,900  Level Vancouver Center
Thu 03:14:50 PM 51.5167 -127.9833 180° South 250 288 11,900  Level Vancouver Center
Thu 03:15:50 PM 51.4500 -128.0000 189° South 250 288 11,900  Level Vancouver Center
Thu 03:16:50 PM 51.3833 -128.0333 197° South 240 276 11,900 50 Level Vancouver Center
Thu 03:17:50 PM 51.3500 -128.1000 231° Southwest 230 265 12,000 33 Climbing Vancouver Center
Thu 03:19:50 PM 51.2833 -128.2667 133° Southeast 230 265 12,000  Level Vancouver Center
Thu 03:20:50 PM 51.2333 -128.3000 203° Southwest 230 265 12,000  Level Vancouver Center
Thu 03:22:50 PM 51.1333 -128.1333 131° Southeast 270 311 12,000  Level Vancouver Center
Thu 03:23:50 PM 51.0667 -128.0500 142° Southeast 270 311 12,000 -450 Level Vancouver Center
Thu 03:24:50 PM 51.0167 -127.9667 134° Southeast 270 311 11,100 -333 Descending Vancouver Center
Thu 03:26:50 PM 50.9000 -127.8000 138° Southeast 270 311 11,000 900 Descending Vancouver Center
Thu 03:27:50 PM 50.8667 -127.7167 122° Southeast 300 345 13,800 2,050 Climbing Vancouver Center
Thu 03:28:50 PM 50.8167 -127.5833 121° Southeast 320 368 15,100 1,850 Climbing Vancouver Center
Thu 03:29:50 PM 50.7667 -127.4667 124° Southeast 340 391 17,500 1,950 Climbing Vancouver Center
Thu 03:30:50 PM 50.7167 -127.5167 212° Southwest 310 357 19,000 750 Climbing Vancouver Center
Thu 03:31:50 PM 50.7667 -127.6500 301° West 350 403 19,000  Level Vancouver Center
Thu 03:32:50 PM 50.8333 -127.7667 312° West 370 426 19,000  Level Vancouver Center
Thu 03:33:50 PM 50.9167 -127.8833 319° Northwest 370 426 19,000  Level Vancouver Center
Thu 03:34:50 PM 50.9833 -127.9833 317° Northwest 370 426 19,000 900 Level Vancouver Center
Thu 03:36:50 PM 51.1500 -128.2167 137° Southeast 380 437 21,700 1,825 Climbing Vancouver Center
Thu 03:38:50 PM 51.2833 -128.4500 137° Southeast 370 426 26,300 2,067 Climbing Vancouver Center
Thu 03:39:50 PM 51.3667 -128.5667 319° Northwest 380 437 27,900 1,533 Climbing Vancouver Center
Thu 03:41:50 PM 51.5167 -128.8167 314° West 400 460 30,900 1,367 Climbing Vancouver Center
Thu 03:42:50 PM 51.6000 -128.9333 319° Northwest 400 460 32,000 1,100 Climbing Vancouver Center
Thu 03:43:50 PM 51.6833 -129.0833 312° West 410 472 33,100 1,000 Climbing Vancouver Center
Thu 03:44:50 PM 51.7500 -129.2000 313° West 420 483 34,000 450 Climbing Vancouver Center
Thu 03:45:50 PM 51.8500 -129.3500 317° Northwest 420 483 34,000  Level Vancouver Center
Thu 03:46:50 PM 51.9333 -129.4667 319° Northwest 420 483 34,000  Level Vancouver Center
Thu 03:47:50 PM 52.0167 -129.6000 315° West 420 483 34,000  Level Vancouver Center
Thu 03:48:50 PM 52.1000 -129.7333 316° Northwest 430 495 34,000  Level Vancouver Center
Thu 03:49:50 PM 52.1833 -129.8833 312° West 430 495 34,000  Level Vancouver Center
Thu 03:51:50 PM 52.3500 -130.1500 North 430 495 34,000  Level Vancouver Center
Thu 03:52:50 PM 52.4333 -130.3000 312° West 430 495 34,000  Level Vancouver Center
Thu 03:53:50 PM 52.5167 -130.4500 312° West 430 495 34,000  Level Vancouver Center
Thu 03:55:50 PM 52.6667 -130.7167 130° Southeast 430 495 34,000  Level Vancouver Center
Thu 03:56:50 PM 52.7500 -130.8667 313° West 430 495 34,000  Level Vancouver Center
Thu 03:57:50 PM 52.8333 -131.0167 313° West 430 495 34,000 -200 Level Vancouver Center
Thu 03:58:50 PM 52.8833 -131.2000 294° West 420 483 33,600 -333 Descending Vancouver Center
Thu 04:00:50 PM 52.7333 -131.4500 130° Southeast 410 472 33,000 -150 Descending Vancouver Center
Thu 04:02:50 PM 52.5000 -131.3500 128° Southeast 510 587 33,000  Level Vancouver Center
Thu 04:05:50 PM 52.2167 -130.8167 127° Southeast 530 610 33,000  Level Vancouver Center
Thu 04:06:50 PM 52.1333 -130.6333 126° Southeast 530 610 33,000  Level Vancouver Center
Thu 04:07:50 PM 52.0333 -130.4167 127° Southeast 530 610 33,000  Level Vancouver Center
Thu 04:08:50 PM 51.9333 -130.2833 141° Southeast 540 621 33,000  Level Vancouver Center
Thu 04:09:50 PM 51.8333 -130.0667 127° Southeast 540 621 33,000  Level Vancouver Center
Thu 04:11:50 PM 51.6333 -129.7167 129° Southeast 540 621 33,000  Level Vancouver Center
Thu 04:13:50 PM 51.4333 -129.3667 128° Southeast 540 621 33,000  Level Vancouver Center
Thu 04:14:50 PM 51.3500 -129.1500 122° Southeast 550 633 33,000  Level Vancouver Center
Thu 04:15:50 PM 51.2667 -128.9500 124° Southeast 550 633 33,000  Level Vancouver Center
Thu 04:19:50 PM 50.9500 -128.1167 130° Southeast 550 633 33,000  Level Vancouver Center
Thu 04:20:50 PM 50.8667 -127.9000 121° Southeast 550 633 33,000  Level Vancouver Center
Thu 04:21:50 PM 50.8000 -127.7167 120° Southeast 560 644 33,000  Level Vancouver Center
Thu 04:23:50 PM 50.6000 -127.3000 159° South 550 633 33,000 -1,067 Level Vancouver Center
Thu 04:24:50 PM 50.5000 -127.1833 143° Southeast 520 598 29,800 -1,967 Descending Vancouver Center
Thu 04:26:50 PM 50.2667 -126.9000 187° South 500 575 27,100 -2,300 Descending Vancouver Center
Thu 04:27:50 PM 50.1667 -126.7667 139° Southeast 480 552 22,900 -3,950 Descending Vancouver Center
Thu 04:28:50 PM 50.0667 -126.6667 147° Southeast 450 518 19,200 -3,350 Descending Vancouver Center
Thu 04:29:50 PM 49.9833 -126.5500 138° Southeast 410 472 16,200 -3,250 Descending Vancouver Center
Thu 04:30:50 PM 49.9000 -126.4667 147° Southeast 380 437 12,700 -2,250 Descending Vancouver Center
Thu 04:31:50 PM 49.8333 -126.3667 136° Southeast 360 414 11,700 -567 Descending Vancouver Center
Thu 04:33:50 PM 49.6667 -126.2000 155° Southeast 340 391 11,000 -233 Descending Vancouver Center
Thu 04:34:50 PM 49.6000 -126.1500 154° Southeast 280 322 11,000 -33 Level Vancouver Center
Thu 04:36:50 PM 49.6500 -126.3833 169° South 320 368 10,900 -333 Descending Vancouver Center
Thu 04:37:50 PM 49.6833 -126.5167 291° West 320 368 10,000 -450 Descending Vancouver Center
Thu 04:38:50 PM 49.7333 -126.6333 304° West 320 368 10,000  Level Vancouver Center
Thu 04:39:50 PM 49.7667 -126.7500 294° West 320 368 10,000  Level Vancouver Center
Thu 04:40:50 PM 49.8167 -126.8500 308° West 290 334 10,000 100 Level Vancouver Center
Thu 04:41:50 PM 49.8500 -126.9500 297° West 280 322 10,200 250 Climbing Vancouver Center
Thu 04:42:50 PM 49.8833 -127.0667 294° West 250 288 10,500 150 Climbing Vancouver Center
Thu 04:43:50 PM 49.9167 -127.1500 302° West 240 276 10,500 -50 Level Vancouver Center
Thu 04:44:50 PM 49.9500 -127.2167 308° West 240 276 10,400 -50 Descending Vancouver Center
Thu 04:45:50 PM 50.0000 -127.3000 313° West 240 276 10,400  Level Vancouver Center
Thu 04:46:50 PM 50.0667 -127.3667 327° Northwest 250 288 10,400 200 Level Vancouver Center
Thu 04:47:50 PM 50.1167 -127.4167 327° Northwest 250 288 10,800 250 Climbing Vancouver Center
Thu 04:48:50 PM 50.1667 -127.5000 313° West 250 288 10,900 100 Climbing Vancouver Center
Thu 04:49:50 PM 50.2333 -127.5500 334° Northwest 250 288 11,000 1,500 Climbing Vancouver Center
Thu 04:50:50 PM 50.3000 -127.5833 342° North 250 288 13,900 1,800 Climbing Vancouver Center
Thu 04:52:50 PM 50.3667 -127.4167 58° Northeast 300 345 16,400 533 Climbing Vancouver Center
Thu 04:53:50 PM 50.3833 -127.3167 75° East 280 322 15,500 -50 Descending Vancouver Center
Thu 04:54:50 PM 50.4167 -127.1833 69° East 280 322 16,300 650 Climbing Vancouver Center
Thu 04:55:50 PM 50.4333 -127.0833 75° East 240 276 16,800 -450 Climbing Vancouver Center
Thu 04:56:50 PM 50.4500 -127.0000 73° East 210 242 15,400 -1,100 Descending Vancouver Center
Thu 04:58:50 PM 50.5000 -126.8667 328° Northwest 190 219 13,500 -500 Descending Vancouver Center
Thu 04:59:50 PM 50.5500 -126.8667 360° North 190 219 13,900 700 Climbing Vancouver Center
Thu 05:00:50 PM 50.6000 -126.9000 337° Northwest 170 196 14,900 400 Climbing Vancouver Center
Thu 05:01:50 PM 50.6000 -127.0000 270° West 220 253 14,700 -850 Descending Vancouver Center
Thu 05:02:50 PM 50.5500 -127.0833 227° Southwest 260 299 13,200 -1,300 Descending Vancouver Center
Thu 05:03:50 PM 50.5000 -127.1833 232° Southwest 290 334 12,100 -433 Descending Vancouver Center
Thu 05:05:50 PM 50.3667 -127.2500 146° Southeast 240 276 11,900  Descending Vancouver Center
Thu 05:06:50 PM 50.3000 -127.3333 219° Southwest 230 265 12,100 100 Climbing Vancouver Center
Thu 05:07:50 PM 50.2500 -127.3500 192° South 240 276 12,100 50 Level Vancouver Center
Thu 05:08:50 PM 50.1833 -127.3500 180° South 240 276 12,200 100 Climbing Vancouver Center
Thu 05:09:50 PM 50.1167 -127.3333 171° South 250 288 12,300 67 Climbing Vancouver Center
Thu 05:11:50 PM 49.9667 -127.3000 126° Southeast 250 288 12,400 -80 Climbing Vancouver Center
Thu 05:14:50 PM 49.9667 -127.3500 125° Southeast 250 288 11,900 -65 Descending Vancouver Center
Thu 05:28:50 PM 50.2000 -127.4000 134° Southeast 240 276 11,300 25 Descending Vancouver Center
Thu 05:30:50 PM 50.3333 -127.4333 127° Southeast 260 299 12,300 333 Climbing Vancouver Center
Thu 05:31:00 PM 49.1594 -125.7664 134° Southeast  Level FlightAware Approximate
Thu 05:31:50 PM 50.3167 -127.3333 105° East 270 311 12,300  Level Vancouver Center
Thu 05:32:00 PM 49.1027 -125.6779 134° Southeast  Level FlightAware Approximate
Thu 05:32:50 PM 50.2500 -127.3500 189° South 250 288 12,300  Level Vancouver Center
Thu 05:33:00 PM 49.0460 -125.5895 134° Southeast  Level FlightAware Approximate
Thu 05:33:50 PM 50.1833 -127.3500 180° South 240 276 12,400  Level Vancouver Center
Thu 05:34:00 PM 48.9892 -125.5014 134° Southeast  Level FlightAware Approximate
Thu 05:34:50 PM 50.1167 -127.3667 189° South 240 276 12,500  Level Vancouver Center
Thu 05:35:50 PM 50.0500 -127.3667 180° South 250 288 12,500 -99 Level Vancouver Center
Thu 05:36:51 PM 50.0000 -127.4167 213° Southwest 230 265 12,300 -198 Descending Vancouver Center
Thu 05:37:51 PM 50.0500 -127.4333 348° North 240 276 12,100 -50 Descending Vancouver Center
Thu 05:38:51 PM 50.1333 -127.4167 North 270 311 12,200 100 Climbing Vancouver Center
Thu 05:39:51 PM 50.2000 -127.4000 North 270 311 12,300 -100 Climbing Vancouver Center
Thu 05:40:51 PM 50.2500 -127.3500 33° Northeast 260 299 12,000 -150 Descending Vancouver Center
Thu 05:41:51 PM 50.2167 -127.3000 136° Southeast 260 299 12,000 75 Level Vancouver Center
Thu 05:44:51 PM 50.0500 -127.4333 142° Southeast 230 265 12,300 100 Climbing Vancouver Center
Thu 05:46:51 PM 49.9167 -127.4833 125° Southeast 240 276 12,500  Climbing Vancouver Center
Thu 05:47:51 PM 49.9167 -127.4000 90° East 250 288 12,300 -50 Descending Vancouver Center
Thu 05:48:51 PM 49.9833 -127.4167 351° North 260 299 12,400 100 Climbing Vancouver Center
Thu 05:49:51 PM 50.0500 -127.4333 351° North 260 299 12,500 -150 Climbing Vancouver Center
Thu 05:50:00 PM 49.7679 -126.7652 142° Southeast  Level FlightAware Approximate
Thu 05:50:51 PM 50.1167 -127.4667 342° North 260 299 12,100  Level Vancouver Center
Thu 05:51:51 PM 50.2000 -127.4833 353° North 260 299 12,500 250 Climbing Vancouver Center
Thu 05:52:51 PM 50.2667 -127.4833 360° North 270 311 12,600 -100 Climbing Vancouver Center
Thu 05:53:51 PM 50.2833 -127.4000 73° East 280 322 12,300 -25 Descending Vancouver Center
Thu 05:56:51 PM 50.1000 -127.4667 140° Southeast 240 276 12,500  Climbing Vancouver Center
Thu 05:59:51 PM 49.9000 -127.3833 334° Northwest 260 299 12,300 -75 Descending Vancouver Center
Thu 06:00:51 PM 49.8833 -127.4500 249° West 220 253 12,200 33 Descending Vancouver Center
Thu 06:02:51 PM 50.0333 -127.4667 357° North 270 311 12,400 75 Climbing Vancouver Center
Thu 06:04:51 PM 50.1667 -127.4667 158° South 260 299 12,500 33 Climbing Vancouver Center
Thu 06:05:00 PM 49.7450 -127.0920 334° Northwest  Level FlightAware Approximate
Thu 06:05:51 PM 50.1167 -127.5000 203° Southwest 240 276 12,500  Level Vancouver Center
Thu 06:07:51 PM 50.0000 -127.4167 155° Southeast 250 288 12,400 -67 Descending Vancouver Center
Thu 06:08:51 PM 49.9333 -127.3833 162° South 250 288 12,300 -50 Descending Vancouver Center
Thu 06:09:51 PM 49.8667 -127.4000 189° South 230 265 12,300 50 Level Vancouver Center
Thu 06:10:51 PM 49.9333 -127.4333 342° North 230 265 12,400 150 Climbing Vancouver Center
Thu 06:11:51 PM 50.0000 -127.4167 North 270 311 12,600 50 Climbing Vancouver Center
Thu 06:12:51 PM 50.0833 -127.4167 360° North 270 311 12,500 -100 Descending Vancouver Center
Thu 06:13:51 PM 50.1167 -127.3667 44° Northeast 250 288 12,400 -20 Descending Vancouver Center
Thu 06:17:51 PM 49.9167 -127.3333 334° Northwest 250 288 12,400 20 Level Vancouver Center
Thu 06:18:51 PM 49.9667 -127.3500 348° North 240 276 12,500 33 Climbing Vancouver Center
Thu 06:20:51 PM 50.0667 -127.4667 131° Southeast 250 288 12,500 -33 Level Vancouver Center
Thu 06:21:51 PM 50.1500 -127.4500 North 270 311 12,400 -50 Descending Vancouver Center
Thu 06:22:00 PM 49.7413 -127.0892 334° Northwest  Level FlightAware Approximate
Thu 06:22:51 PM 50.1333 -127.3667 107° East 270 311 12,400  Level Vancouver Center
Thu 06:25:51 PM 49.9333 -127.4333 334° Northwest 240 276 12,400  Level Vancouver Center
Thu 06:27:51 PM 49.9500 -127.3333 131° Southeast 250 288 12,400 33 Level Vancouver Center
Thu 06:28:51 PM 49.9833 -127.4333 297° West 240 276 12,500 50 Climbing Vancouver Center
Thu 06:29:51 PM 50.0500 -127.4667 342° North 250 288 12,500 -100 Level Vancouver Center
Thu 06:30:51 PM 50.1000 -127.4167 33° Northeast 260 299 12,300  Descending Vancouver Center
Thu 06:32:51 PM 49.9833 -127.4333 177° South 230 265 12,500 67 Climbing Vancouver Center
Thu 06:33:51 PM 49.9167 -127.4333 180° South 240 276 12,500 -50 Level Vancouver Center
Thu 06:34:51 PM 49.9000 -127.3500 107° East 250 288 12,400  Descending Vancouver Center
Thu 06:35:51 PM 49.9833 -127.3333 North 260 299 12,500 150 Climbing Vancouver Center
Thu 06:36:51 PM 50.0500 -127.3333 360° North 260 299 12,700 -50 Climbing Vancouver Center
Thu 06:37:51 PM 50.1167 -127.3167 North 270 311 12,400 -300 Descending Vancouver Center
Thu 06:38:51 PM 50.1833 -127.2667 26° Northeast 270 311 12,100 1,060 Descending Vancouver Center
Thu 06:42:51 PM 50.3000 -127.3000 131° Southeast 270 311 17,700 1,140 Climbing Vancouver Center
Thu 06:43:51 PM 50.3333 -127.1667 69° East 310 357 17,800 100 Climbing Vancouver Center
Thu 06:44:51 PM 50.2667 -127.1167 154° Southeast 260 299 17,900  Climbing Vancouver Center
Thu 06:45:51 PM 50.2167 -127.0833 157° South 220 253 17,800 -433 Descending Vancouver Center
Thu 06:47:51 PM 50.1000 -127.0500 139° Southeast 210 242 16,600 -567 Descending Vancouver Center
Thu 06:48:00 PM 49.8162 -127.2321 131° Southeast  Level FlightAware Approximate
Thu 06:48:51 PM 50.0333 -127.0167 162° South 220 253 16,100  Level Vancouver Center
Thu 06:49:51 PM 50.0000 -127.0500 213° Southwest 200 230 17,200 700 Climbing Vancouver Center
Thu 06:50:51 PM 49.9833 -127.1167 118° Southeast 170 196 17,500 -50 Climbing Vancouver Center
Thu 06:51:00 PM 49.9655 -126.9493 118° Southeast  Level FlightAware Approximate
Thu 06:51:51 PM 49.9667 -127.1667 243° Southwest 160 184 17,100  Level Vancouver Center
Thu 06:52:51 PM 49.9500 -127.2500 253° West 150 173 16,200 -700 Descending Vancouver Center
Thu 06:53:51 PM 49.9333 -127.3000 243° Southwest 160 184 15,700 -50 Descending Vancouver Center
Thu 06:54:51 PM 49.9167 -127.4000 256° West 210 242 16,100 561 Climbing Vancouver Center
Thu 07:03:18 PM 49.4934 -126.0952 113° Southeast 449 517 21,000 546 Climbing FlightAware ADS-B (CYVR)
Thu 07:03:49 PM 49.4683 -126.0050 113° Southeast 450 518 21,000  Level FlightAware ADS-B (CYVR)
Thu 07:04:19 PM 49.4430 -125.9147 113° Southeast 450 518 21,000  Level FlightAware ADS-B (CYVR)
Thu 07:04:59 PM 49.4101 -125.7974 113° Southeast 450 518 21,000  Level FlightAware ADS-B (CYVR)
Thu 07:05:30 PM 49.3848 -125.7076 114° Southeast 447 514 21,000  Level FlightAware ADS-B (CYVR)
Thu 07:06:09 PM 49.3533 -125.5963 114° Southeast 446 513 21,000  Level FlightAware ADS-B (CYVR)
Thu 07:06:40 PM 49.3275 -125.5058 114° Southeast 444 511 21,000  Level FlightAware ADS-B (CYVR)
Thu 07:07:19 PM 49.2951 -125.3922 114° Southeast 444 511 21,000  Level FlightAware ADS-B (CYVR)
Thu 07:07:50 PM 49.2697 -125.3035 114° Southeast 447 514 21,000  Level FlightAware ADS-B (CYVR)
Thu 07:08:29 PM 49.2371 -125.1904 114° Southeast 446 513 21,000  Level FlightAware ADS-B (CYVR)
Thu 07:09:00 PM 49.2121 -125.1041 114° Southeast 446 513 21,000  Level FlightAware ADS-B (CYVR)
Thu 07:09:30 PM 49.1915 -125.0329 114° Southeast 445 512 21,000  Level FlightAware ADS-B (CYVR)
Thu 07:10:00 PM 49.1618 -124.9308 114° Southeast 445 512 21,000  Level FlightAware ADS-B (CYVR)
Thu 07:10:30 PM 49.1362 -124.8432 114° Southeast 445 512 21,000  Level FlightAware ADS-B (CYVR)
Thu 07:11:00 PM 49.1134 -124.7655 114° Southeast 445 512 21,000  Level FlightAware ADS-B (CYVR)
Thu 07:11:31 PM 49.0846 -124.6677 114° Southeast 445 512 21,000  Level FlightAware ADS-B (FAKM / KIM)
Thu 07:12:05 PM 49.0583 -124.5785 114° Southeast 445 512 21,000  Level FlightAware ADS-B (FAKM / KIM)
Thu 07:12:36 PM 49.0320 -124.4900 114° Southeast 446 513 21,000  Level FlightAware ADS-B (FAKM / KIM)
Thu 07:13:06 PM 49.0064 -124.4038 114° Southeast 447 514 21,000  Level FlightAware ADS-B (FAKM / KIM)
Thu 07:13:36 PM 48.9809 -124.3187 114° Southeast 446 513 21,000  Level FlightAware ADS-B (FAKM / KIM)
Thu 07:13:40 PM 48.9746 -124.2976 115° Southeast 446 513 21,000  Level FlightAware ADS-B (FAKM / KIM)
Thu 07:14:10 PM 48.9543 -124.2297 115° Southeast 446 513 21,000  Level FlightAware ADS-B (CYVR)
Thu 07:14:40 PM 48.9305 -124.1506 115° Southeast 445 512 21,000  Level FlightAware ADS-B (FAKM / KIM)
Thu 07:15:10 PM 48.8991 -124.0466 115° Southeast 446 513 21,000  Level FlightAware ADS-B (CYVR)
Thu 07:15:45 PM 48.8702 -123.9513 115° Southeast 446 513 21,000  Level FlightAware ADS-B (FAKM / KIM)
Thu 07:15:59 PM 48.8562 -123.9050 115° Southeast 446 513 21,000  Level FlightAware ADS-B
Thu 07:16:20 PM 48.8389 -123.8487 115° Southeast 447 514 21,000  Level FlightAware ADS-B (CYVR)
Thu 07:16:29 PM 48.8301 -123.8200 115° Southeast 447 514 21,000  Level FlightAware ADS-B
Thu 07:16:51 PM 48.8094 -123.7521 115° Southeast 448 516 21,000  Level FlightAware ADS-B (FAKM / KIM)
Thu 07:17:00 PM 48.8038 -123.7340 115° Southeast 447 514 21,000  Level FlightAware ADS-B
Thu 07:17:27 PM 48.7788 -123.6521 115° Southeast 449 517 21,000  Level FlightAware ADS-B (FAKM / KIM)
Thu 07:17:30 PM 48.7775 -123.6480 115° Southeast 449 517 21,000  Level FlightAware ADS-B
Thu 07:17:59 PM 48.7517 -123.5645 115° Southeast 449 517 21,000  Level FlightAware ADS-B (CYVR)
Thu 07:18:15 PM 48.7368 -123.5210 115° Southeast 448 516 21,000  Level FlightAware ADS-B
Thu 07:18:16 PM 48.7361 -123.5196 125° Southeast 449 517 21,000  Level FlightAware ADS-B (FAKM / KIM)
Thu 07:18:21 PM 48.7289 -123.5043 129° Southeast 448 516 21,000 -300 Level FlightAware ADS-B (FAKM / KIM)
Thu 07:18:36 PM 48.7077 -123.4702 140° Southeast 443 510 20,900 -500 Descending FlightAware ADS-B (FAKM / KIM)
Thu 07:18:45 PM 48.6946 -123.4540 137° Southeast 445 512 20,800 -545 Descending FlightAware ADS-B
Thu 07:18:47 PM 48.6939 -123.4537 147° Southeast 440 506 20,800 -1,500 Level FlightAware ADS-B (FAKM / KIM)
Thu 07:18:49 PM 48.6865 -123.4460 147° Southeast 440 506 20,700 -1,273 Descending FlightAware ADS-B
Thu 07:19:20 PM 48.6352 -123.3983 148° Southeast 437 503 20,100 -1,333 Descending FlightAware ADS-B (CYVR)
Thu 07:19:25 PM 48.6253 -123.3890 148° Southeast 437 503 19,900 -1,429 Descending FlightAware ADS-B
Thu 07:19:41 PM 48.6071 -123.3723 148° Southeast 432 497 19,600 -1,200 Descending FlightAware ADS-B (FAKM / KIM)
Thu 07:19:55 PM 48.5741 -123.3420 148° Southeast 431 496 19,300 -1,263 Descending FlightAware ADS-B
Thu 07:20:19 PM 48.5336 -123.3041 148° Southeast 427 491 18,800 -1,400 Descending FlightAware ADS-B (CYVR)
Thu 07:20:25 PM 48.5228 -123.2940 149° Southeast 427 491 18,600 -1,355 Descending FlightAware ADS-B
Thu 07:20:50 PM 48.4850 -123.2592 148° Southeast 422 486 18,100 -1,200 Descending FlightAware ADS-B (CYVR)
Thu 07:20:55 PM 48.4728 -123.2480 148° Southeast 421 484 18,000 -1,000 Descending FlightAware ADS-B
Thu 07:21:20 PM 48.4389 -123.2164 148° Southeast 415 478 17,600 -968 Descending FlightAware ADS-B (CYVR)
Thu 07:21:26 PM 48.4236 -123.2020 148° Southeast 414 476 17,500 -1,167 Descending FlightAware ADS-B
Thu 07:21:56 PM 48.3748 -123.1570 148° Southeast 409 471 16,900 -1,235 Descending FlightAware ADS-B
Thu 07:22:00 PM 48.3690 -123.1517 149° Southeast 407 468 16,800 -400 Descending FlightAware ADS-B (CYVR)
Thu 07:22:26 PM 48.3263 -123.1120 148° Southeast 400 460 16,700 -154 Descending FlightAware ADS-B
Thu 07:22:39 PM 48.3068 -123.0944 148° Southeast 385 443 16,700  Level FlightAware ADS-B
Thu 07:22:56 PM 48.2809 -123.0710 148° Southeast 374 430 16,700 -194 Level FlightAware ADS-B
Thu 07:23:10 PM 48.2647 -123.0557 149° Southeast 372 428 16,600 -194 Descending FlightAware ADS-B
Thu 07:23:27 PM 48.2360 -123.0290 149° Southeast 370 426 16,600 -200 Level FlightAware ADS-B
Thu 07:23:40 PM 48.2211 -123.0159 149° Southeast 369 425 16,500 -400 Descending FlightAware ADS-B
Thu 07:23:57 PM 48.1914 -122.9890 149° Southeast 384 442 16,400 -450 Descending FlightAware ADS-B
Thu 07:24:20 PM 48.1572 -122.9576 149° Southeast 394 453 16,200 -600 Descending FlightAware ADS-B
Thu 07:24:27 PM 48.1451 -122.9460 149° Southeast 396 456 16,100 -947 Descending FlightAware ADS-B
Thu 07:24:39 PM 48.1264 -122.9293 148° Southeast 396 456 15,900 -800 Descending FlightAware ADS-B (CYVR)
Thu 07:24:57 PM 48.0986 -122.9040 149° Southeast 391 450 15,700 -387 Descending FlightAware ADS-B
Thu 07:25:10 PM 48.0829 -122.8896 149° Southeast 385 443 15,700  Level FlightAware ADS-B
Thu 07:25:27 PM 48.0529 -122.8620 149° Southeast 367 422 15,700  Level FlightAware ADS-B
Thu 07:25:40 PM 48.0360 -122.8471 149° Southeast 360 414 15,700 -400 Level FlightAware ADS-B
Thu 07:25:57 PM 48.0104 -122.8240 149° Southeast 355 409 15,500 -600 Descending FlightAware ADS-B
Thu 07:26:10 PM 47.9958 -122.8107 149° Southeast 353 406 15,400 -774 Descending FlightAware ADS-B
Thu 07:26:28 PM 47.9682 -122.7860 149° Southeast 353 406 15,100 -1,000 Descending FlightAware ADS-B
Thu 07:26:40 PM 47.9612 -122.7796 149° Southeast 353 406 14,900 -800 Descending FlightAware ADS-B
Thu 07:26:58 PM 47.9261 -122.7480 149° Southeast 352 405 14,700 -800 Descending FlightAware ADS-B
Thu 07:27:10 PM 47.9091 -122.7325 149° Southeast 352 405 14,500 -800 Descending FlightAware ADS-B
Thu 07:27:28 PM 47.8841 -122.7100 149° Southeast 351 404 14,300 -800 Descending FlightAware ADS-B
Thu 07:27:40 PM 47.8922 -122.7171 149° Southeast 347 399 14,100 -800 Descending FlightAware ADS-B
Thu 07:27:58 PM 47.8426 -122.6730 149° Southeast 345 397 13,900 -774 Descending FlightAware ADS-B
Thu 07:28:11 PM 47.8257 -122.6573 149° Southeast 344 396 13,700 -1,000 Descending FlightAware ADS-B (CYVR)
Thu 07:28:28 PM 47.8020 -122.6360 149° Southeast 338 389 13,400 -1,000 Descending FlightAware ADS-B
Thu 07:28:41 PM 47.7849 -122.6206 149° Southeast 330 380 13,200 -800 Descending FlightAware ADS-B (CYVR)
Thu 07:28:58 PM 47.7625 -122.6010 149° Southeast 321 369 13,000 -1,091 Descending FlightAware ADS-B
Thu 07:29:36 PM 47.7155 -122.5590 149° Southeast 315 362 12,200 -1,258 Descending FlightAware ADS-B
Thu 07:30:00 PM 47.6862 -122.5323 149° Southeast 310 357 11,700 -1,400 Descending FlightAware ADS-B (CYVR)
Thu 07:30:06 PM 47.6782 -122.5250 149° Southeast 308 354 11,500 -1,459 Descending FlightAware ADS-B
Thu 07:30:37 PM 47.6402 -122.4910 149° Southeast 305 351 10,800 -1,418 Descending FlightAware ADS-B
Thu 07:31:01 PM 47.6112 -122.4660 150° Southeast 303 349 10,200 -1,500 Descending FlightAware ADS-B
Thu 07:31:05 PM 47.6068 -122.4620 154° Southeast 303 349 10,100 -1,500 Descending FlightAware ADS-B
Thu 07:31:09 PM 47.6016 -122.4590 160° South 301 346 10,000 -1,714 Descending FlightAware ADS-B
Thu 07:31:12 PM 47.5970 -122.4580 165° South 299 344 9,900 -1,714 Descending FlightAware ADS-B
Thu 07:31:16 PM 47.5924 -122.4560 169° South 298 343 9,800 -1,636 Descending FlightAware ADS-B
Thu 07:31:23 PM 47.5821 -122.4540 172° South 298 343 9,600 -1,579 Descending FlightAware ADS-B
Thu 07:31:35 PM 47.5665 -122.4510 174° South 298 343 9,300 -1,500 Descending FlightAware ADS-B
Thu 07:31:39 PM 47.6508 -122.5009 174° South 297 342 9,200 -571 Descending FlightAware ADS-B (CYVR)
Thu 07:31:56 PM 47.5383 -122.4470 175° South 291 335 9,100 -643 Descending FlightAware ADS-B
Thu 07:32:07 PM 47.5236 -122.4460 175° South 284 327 8,900 -1,200 Descending FlightAware ADS-B
Thu 07:32:11 PM 47.5178 -122.4440 172° South 283 326 8,800 -1,333 Descending FlightAware ADS-B
Thu 07:32:16 PM 47.5122 -122.4430 166° South 283 326 8,700 -1,500 Descending FlightAware ADS-B
Thu 07:32:19 PM 47.5077 -122.4400 161° South 281 323 8,600 -857 Descending FlightAware ADS-B
Thu 07:32:23 PM 47.5039 -122.4380 156° South 281 323 8,600 -667 Level FlightAware ADS-B
Thu 07:32:28 PM 47.4979 -122.4340 152° Southeast 277 319 8,500 -750 Descending FlightAware ADS-B
Thu 07:32:31 PM 47.4946 -122.4310 151° Southeast 275 316 8,500 -333 Level FlightAware ADS-B
Thu 07:32:46 PM 47.4778 -122.4160 148° Southeast 265 305 8,400 -581 Descending FlightAware ADS-B
Thu 07:33:02 PM 47.4627 -122.4010 147° Southeast 255 293 8,200 -1,161 Descending FlightAware ADS-B
Thu 07:33:17 PM 47.4482 -122.3880 147° Southeast 239 275 7,800 -1,448 Descending FlightAware ADS-B
Thu 07:33:31 PM 47.4354 -122.3750 147° Southeast 225 259 7,500 -1,333 Descending FlightAware ADS-B
Thu 07:33:44 PM 47.4240 -122.3650 147° Southeast 216 249 7,200 -1,500 Descending FlightAware ADS-B
Thu 07:33:59 PM 47.4116 -122.3530 147° Southeast 210 242 6,800 -1,500 Descending FlightAware ADS-B
Thu 07:34:12 PM 47.4014 -122.3430 148° Southeast 209 241 6,500 -1,154 Descending FlightAware ADS-B
Thu 07:34:25 PM 47.3904 -122.3330 147° Southeast 206 237 6,300 -1,071 Descending FlightAware ADS-B
Thu 07:34:40 PM 47.3785 -122.3210 147° Southeast 202 232 6,000 -1,071 Descending FlightAware ADS-B
Thu 07:34:53 PM 47.3691 -122.3120 147° Southeast 199 229 5,800 -900 Descending FlightAware ADS-B
Thu 07:35:00 PM 47.3634 -122.3070 146° Southeast 197 227 5,700 -545 Descending FlightAware ADS-B
Thu 07:35:04 PM 47.3604 -122.3030 142° Southeast 197 227 5,700  Level FlightAware ADS-B
Thu 07:35:08 PM 47.3578 -122.3000 135° Southeast 196 226 5,700  Level FlightAware ADS-B
Thu 07:35:12 PM 47.3557 -122.2960 125° Southeast 193 222 5,700 -750 Level FlightAware ADS-B
Thu 07:35:16 PM 47.3541 -122.2910 117° Southeast 190 219 5,600 -857 Descending FlightAware ADS-B
Thu 07:35:19 PM 47.3531 -122.2880 114° Southeast 189 217 5,600 -857 Level FlightAware ADS-B
Thu 07:35:23 PM 47.3517 -122.2830 111° Southeast 187 215 5,500 -857 Descending FlightAware ADS-B
Thu 07:35:26 PM 47.3508 -122.2790 109° East 186 214 5,500 -857 Level FlightAware ADS-B
Thu 07:35:37 PM 47.3483 -122.2670 107° East 183 211 5,300 -960 Descending FlightAware ADS-B
Thu 07:35:51 PM 47.3450 -122.2500 106° East 178 205 5,100 -1,034 Descending FlightAware ADS-B
Thu 07:36:06 PM 47.3415 -122.2330 106° East 174 200 4,800 -1,091 Descending FlightAware ADS-B
Thu 07:36:13 PM 47.3400 -122.2250 104° East 173 199 4,700 -1,636 Descending FlightAware ADS-B
Thu 07:36:17 PM 47.3394 -122.2190 98° East 174 200 4,500 -1,500 Descending FlightAware ADS-B
Thu 07:36:21 PM 47.3394 -122.2150 86° East 173 199 4,500 -750 Level FlightAware ADS-B
Thu 07:36:25 PM 47.3402 -122.2110 72° East 173 199 4,400 -1,714 Descending FlightAware ADS-B
Thu 07:36:28 PM 47.3413 -122.2080 62° Northeast 174 200 4,300 -2,000 Descending FlightAware ADS-B
Thu 07:36:31 PM 47.3429 -122.2050 51° Northeast 173 199 4,200 -1,714 Descending FlightAware ADS-B
Thu 07:36:35 PM 47.3449 -122.2020 38° Northeast 172 198 4,100 -857 Descending FlightAware ADS-B
Thu 07:36:38 PM 47.3472 -122.2000 29° Northeast 170 196 4,100 -857 Level FlightAware ADS-B
Thu 07:36:42 PM 47.3498 -122.1980 17° North 169 194 4,000 -857 Descending FlightAware ADS-B
Thu 07:36:45 PM 47.3526 -122.1980 10° North 168 193 4,000 -857 Level FlightAware ADS-B
Thu 07:36:49 PM 47.3555 -122.1970 North 167 192 3,900 -1,714 Descending FlightAware ADS-B
Thu 07:36:52 PM 47.3578 -122.1970 359° North 167 192 3,800 -1,500 Descending FlightAware ADS-B
Thu 07:37:01 PM 47.3648 -122.1980 356° North 169 194 3,600 -1,412 Descending FlightAware ADS-B
Thu 07:37:09 PM 47.3709 -122.1990 355° North 169 194 3,400 -1,333 Descending FlightAware ADS-B
Thu 07:37:19 PM 47.3787 -122.2000 354° North 169 194 3,200 -1,059 Descending FlightAware ADS-B
Thu 07:37:26 PM 47.3841 -122.2010 354° North 168 193 3,100 -1,333 Descending FlightAware ADS-B
Thu 07:37:37 PM 47.3927 -122.2020 353° North 165 190 2,800 -1,263 Descending FlightAware ADS-B
Thu 07:37:45 PM 47.3986 -122.2030 351° North 164 189 2,700 -1,125 Descending FlightAware ADS-B
Thu 07:37:53 PM 47.4051 -122.2050 348° North 162 186 2,500 -1,059 Descending FlightAware ADS-B
Thu 07:38:02 PM 47.4114 -122.2070 348° North 162 186 2,400 -706 Descending FlightAware ADS-B
Thu 07:38:10 PM 47.4169 -122.2090 347° North 161 185 2,300 -1,091 Descending FlightAware ADS-B
Thu 07:38:13 PM 47.4192 -122.2100 345° North 161 185 2,200 -857 Descending FlightAware ADS-B
Thu 07:38:17 PM 47.4218 -122.2110 340° North 161 185 2,200 -750 Level FlightAware ADS-B
Thu 07:38:21 PM 47.4248 -122.2130 334° Northwest 162 186 2,100 -1,714 Descending FlightAware ADS-B
Thu 07:38:24 PM 47.4267 -122.2150 331° Northwest 163 188 2,000 -1,000 Descending FlightAware ADS-B
Thu 07:38:33 PM 47.4324 -122.2200 328° Northwest 162 186 1,900 -1,000 Descending FlightAware ADS-B
Thu 07:38:48 PM 47.4421 -122.2280 329° Northwest 161 185 1,600 -1,000 Descending FlightAware ADS-B
Thu 07:39:03 PM 47.4519 -122.2370 330° Northwest 160 184 1,400 -857 Descending FlightAware ADS-B
Thu 07:39:16 PM 47.4600 -122.2430 330° Northwest 159 183 1,200 -960 Descending FlightAware ADS-B
Thu 07:39:28 PM 47.4675 -122.2500 330° Northwest 156 180 1,000 -818 Descending FlightAware ADS-B
Thu 07:39:38 PM 47.4737 -122.2550 331° Northwest 149 171 900 -400 Descending FlightAware ADS-B
Thu 07:40:13 PM 47.4922 -122.2722 331° Northwest 145 167 700 -462 Descending Seattle Center
Thu 07:41:22 PM 47.5286 -122.3019 331° Northwest 143 165 100 -522 Descending Seattle Center
Thu 07:43:00 PM 47.5300 -122.3020 306° West  Level Estimated
Thu 07:50:00 PM 47.5300 -122.3020 298° West  Level Estimated
Thu 07:51:00 PM 47.5300 -122.3020 215° Southwest  Level Estimated
Thu 07:52:00 PM 47.5300 -122.3020 146° Southeast  Level Estimated
Thu 07:53:00 PM 47.5300 -122.3020 176° South  Level Estimated
Thu 07:54:00 PM 47.5300 -122.3020 356° North  Level Estimated
Thu 07:55:00 PM 47.5300 -122.3020 174° South  Level Estimated

Login

Don't have an account? Register now (free) for customized features, flight alerts, and more!